sensor_id;sensor_type;location;lat;lon;timestamp;P1;durP1;ratioP1;P2;durP2;ratioP2
42200;SDS011;27869;51.442;7.540;2022-12-18T00:02:05;38.78;;;16.25;;
42200;SDS011;27869;51.442;7.540;2022-12-18T00:04:32;39.20;;;16.25;;
42200;SDS011;27869;51.442;7.540;2022-12-18T00:07:01;42.95;;;18.75;;
42200;SDS011;27869;51.442;7.540;2022-12-18T00:09:28;35.38;;;16.58;;
42200;SDS011;27869;51.442;7.540;2022-12-18T00:11:54;36.83;;;15.75;;
42200;SDS011;27869;51.442;7.540;2022-12-18T00:14:21;33.97;;;12.98;;
42200;SDS011;27869;51.442;7.540;2022-12-18T00:16:48;29.40;;;11.48;;
42200;SDS011;27869;51.442;7.540;2022-12-18T00:19:15;30.63;;;12.95;;
42200;SDS011;27869;51.442;7.540;2022-12-18T00:21:42;29.17;;;13.10;;
42200;SDS011;27869;51.442;7.540;2022-12-18T00:24:11;32.40;;;13.68;;
42200;SDS011;27869;51.442;7.540;2022-12-18T00:26:38;33.05;;;14.07;;
42200;SDS011;27869;51.442;7.540;2022-12-18T00:29:06;29.45;;;12.63;;
42200;SDS011;27869;51.442;7.540;2022-12-18T00:34:03;28.70;;;13.27;;
42200;SDS011;27869;51.442;7.540;2022-12-18T00:36:30;30.75;;;14.27;;
42200;SDS011;27869;51.442;7.540;2022-12-18T00:38:59;30.65;;;14.90;;
42200;SDS011;27869;51.442;7.540;2022-12-18T00:41:28;33.60;;;14.20;;
42200;SDS011;27869;51.442;7.540;2022-12-18T00:44:13;31.40;;;13.90;;
42200;SDS011;27869;51.442;7.540;2022-12-18T00:46:42;31.25;;;11.85;;
42200;SDS011;27869;51.442;7.540;2022-12-18T00:49:09;33.33;;;13.85;;
42200;SDS011;27869;51.442;7.540;2022-12-18T00:51:36;26.13;;;12.65;;
42200;SDS011;27869;51.442;7.540;2022-12-18T00:54:03;30.10;;;11.55;;
42200;SDS011;27869;51.442;7.540;2022-12-18T00:56:31;26.70;;;11.23;;
42200;SDS011;27869;51.442;7.540;2022-12-18T00:58:58;31.58;;;13.55;;
42200;SDS011;27869;51.442;7.540;2022-12-18T01:01:25;26.20;;;11.40;;
42200;SDS011;27869;51.442;7.540;2022-12-18T01:03:52;24.05;;;11.48;;
42200;SDS011;27869;51.442;7.540;2022-12-18T01:06:18;25.50;;;10.60;;
42200;SDS011;27869;51.442;7.540;2022-12-18T01:08:46;26.05;;;10.85;;
42200;SDS011;27869;51.442;7.540;2022-12-18T01:11:13;28.13;;;11.10;;
42200;SDS011;27869;51.442;7.540;2022-12-18T01:13:43;27.70;;;11.25;;
42200;SDS011;27869;51.442;7.540;2022-12-18T01:16:11;27.30;;;12.57;;
42200;SDS011;27869;51.442;7.540;2022-12-18T01:18:38;27.08;;;12.07;;
42200;SDS011;27869;51.442;7.540;2022-12-18T01:21:05;31.65;;;13.45;;
42200;SDS011;27869;51.442;7.540;2022-12-18T01:23:33;32.75;;;14.27;;
42200;SDS011;27869;51.442;7.540;2022-12-18T01:26:03;33.38;;;13.60;;
42200;SDS011;27869;51.442;7.540;2022-12-18T01:28:31;31.63;;;14.52;;
42200;SDS011;27869;51.442;7.540;2022-12-18T01:31:09;30.50;;;12.75;;
42200;SDS011;27869;51.442;7.540;2022-12-18T01:33:37;28.60;;;12.32;;
42200;SDS011;27869;51.442;7.540;2022-12-18T01:36:04;28.77;;;12.75;;
42200;SDS011;27869;51.442;7.540;2022-12-18T01:38:31;23.45;;;10.48;;
42200;SDS011;27869;51.442;7.540;2022-12-18T01:40:58;27.10;;;10.48;;
42200;SDS011;27869;51.442;7.540;2022-12-18T01:43:40;28.45;;;11.68;;
42200;SDS011;27869;51.442;7.540;2022-12-18T01:46:08;28.02;;;11.82;;
42200;SDS011;27869;51.442;7.540;2022-12-18T01:48:36;31.00;;;12.02;;
42200;SDS011;27869;51.442;7.540;2022-12-18T01:51:04;33.67;;;13.60;;
42200;SDS011;27869;51.442;7.540;2022-12-18T01:53:32;31.55;;;13.52;;
42200;SDS011;27869;51.442;7.540;2022-12-18T01:55:58;27.05;;;13.20;;
42200;SDS011;27869;51.442;7.540;2022-12-18T01:58:27;33.70;;;15.05;;
42200;SDS011;27869;51.442;7.540;2022-12-18T02:01:01;35.80;;;14.75;;
42200;SDS011;27869;51.442;7.540;2022-12-18T02:03:30;29.05;;;13.02;;
42200;SDS011;27869;51.442;7.540;2022-12-18T02:05:59;37.72;;;11.43;;
42200;SDS011;27869;51.442;7.540;2022-12-18T02:08:34;30.38;;;12.52;;
42200;SDS011;27869;51.442;7.540;2022-12-18T02:11:07;29.42;;;12.50;;
42200;SDS011;27869;51.442;7.540;2022-12-18T02:13:41;28.35;;;14.02;;
42200;SDS011;27869;51.442;7.540;2022-12-18T02:16:14;31.38;;;13.75;;
42200;SDS011;27869;51.442;7.540;2022-12-18T02:18:53;38.72;;;14.40;;
42200;SDS011;27869;51.442;7.540;2022-12-18T02:21:25;32.40;;;14.55;;
42200;SDS011;27869;51.442;7.540;2022-12-18T02:24:02;30.83;;;13.70;;
42200;SDS011;27869;51.442;7.540;2022-12-18T02:26:40;31.23;;;14.07;;
42200;SDS011;27869;51.442;7.540;2022-12-18T02:29:12;31.23;;;13.35;;
42200;SDS011;27869;51.442;7.540;2022-12-18T02:31:43;31.58;;;14.55;;
42200;SDS011;27869;51.442;7.540;2022-12-18T02:34:15;26.40;;;13.00;;
42200;SDS011;27869;51.442;7.540;2022-12-18T02:36:43;31.52;;;12.55;;
42200;SDS011;27869;51.442;7.540;2022-12-18T02:39:12;31.52;;;13.68;;
42200;SDS011;27869;51.442;7.540;2022-12-18T02:41:42;29.60;;;13.30;;
42200;SDS011;27869;51.442;7.540;2022-12-18T02:44:10;28.00;;;12.68;;
42200;SDS011;27869;51.442;7.540;2022-12-18T02:46:42;31.83;;;13.75;;
42200;SDS011;27869;51.442;7.540;2022-12-18T02:49:12;27.52;;;11.20;;
42200;SDS011;27869;51.442;7.540;2022-12-18T02:51:53;23.83;;;10.90;;
42200;SDS011;27869;51.442;7.540;2022-12-18T02:57:16;22.20;;;7.55;;
42200;SDS011;27869;51.442;7.540;2022-12-18T02:59:50;21.38;;;8.90;;
42200;SDS011;27869;51.442;7.540;2022-12-18T03:02:24;23.92;;;9.80;;
42200;SDS011;27869;51.442;7.540;2022-12-18T03:04:59;23.80;;;9.88;;
42200;SDS011;27869;51.442;7.540;2022-12-18T03:07:34;25.15;;;8.88;;
42200;SDS011;27869;51.442;7.540;2022-12-18T03:10:04;26.73;;;10.73;;
42200;SDS011;27869;51.442;7.540;2022-12-18T03:12:37;26.02;;;11.68;;
42200;SDS011;27869;51.442;7.540;2022-12-18T03:15:09;26.35;;;11.43;;
42200;SDS011;27869;51.442;7.540;2022-12-18T03:17:41;25.02;;;10.52;;
42200;SDS011;27869;51.442;7.540;2022-12-18T03:20:14;28.52;;;11.57;;
42200;SDS011;27869;51.442;7.540;2022-12-18T03:22:45;25.65;;;11.18;;
42200;SDS011;27869;51.442;7.540;2022-12-18T03:25:17;30.38;;;11.10;;
42200;SDS011;27869;51.442;7.540;2022-12-18T03:27:48;29.10;;;9.93;;
42200;SDS011;27869;51.442;7.540;2022-12-18T03:30:19;26.38;;;10.82;;
42200;SDS011;27869;51.442;7.540;2022-12-18T03:32:47;23.48;;;9.65;;
42200;SDS011;27869;51.442;7.540;2022-12-18T03:35:21;26.05;;;9.90;;
42200;SDS011;27869;51.442;7.540;2022-12-18T03:37:50;23.98;;;9.63;;
42200;SDS011;27869;51.442;7.540;2022-12-18T03:40:17;24.48;;;10.00;;
42200;SDS011;27869;51.442;7.540;2022-12-18T03:42:48;22.27;;;10.35;;
42200;SDS011;27869;51.442;7.540;2022-12-18T03:45:19;25.08;;;9.88;;
42200;SDS011;27869;51.442;7.540;2022-12-18T03:47:53;25.13;;;9.68;;
42200;SDS011;27869;51.442;7.540;2022-12-18T03:50:29;22.73;;;9.30;;
42200;SDS011;27869;51.442;7.540;2022-12-18T03:53:04;24.98;;;8.13;;
42200;SDS011;27869;51.442;7.540;2022-12-18T03:55:40;20.48;;;8.20;;
42200;SDS011;27869;51.442;7.540;2022-12-18T03:58:09;22.48;;;8.98;;
42200;SDS011;27869;51.442;7.540;2022-12-18T04:00:39;25.48;;;8.75;;
42200;SDS011;27869;51.442;7.540;2022-12-18T04:03:09;18.15;;;8.00;;
42200;SDS011;27869;51.442;7.540;2022-12-18T04:05:37;22.25;;;8.82;;
42200;SDS011;27869;51.442;7.540;2022-12-18T04:08:04;22.15;;;9.10;;
42200;SDS011;27869;51.442;7.540;2022-12-18T04:10:31;18.67;;;8.23;;
42200;SDS011;27869;51.442;7.540;2022-12-18T04:12:58;18.42;;;6.72;;
42200;SDS011;27869;51.442;7.540;2022-12-18T04:15:27;20.65;;;7.03;;
42200;SDS011;27869;51.442;7.540;2022-12-18T04:17:57;20.45;;;7.05;;
42200;SDS011;27869;51.442;7.540;2022-12-18T04:20:24;19.15;;;7.28;;
42200;SDS011;27869;51.442;7.540;2022-12-18T04:22:51;20.83;;;8.63;;
42200;SDS011;27869;51.442;7.540;2022-12-18T04:25:18;18.88;;;7.10;;
42200;SDS011;27869;51.442;7.540;2022-12-18T04:27:45;20.10;;;6.80;;
42200;SDS011;27869;51.442;7.540;2022-12-18T04:30:14;19.13;;;7.40;;
42200;SDS011;27869;51.442;7.540;2022-12-18T04:32:45;19.65;;;7.72;;
42200;SDS011;27869;51.442;7.540;2022-12-18T04:35:15;21.70;;;7.90;;
42200;SDS011;27869;51.442;7.540;2022-12-18T04:37:42;17.50;;;7.03;;
42200;SDS011;27869;51.442;7.540;2022-12-18T04:40:09;16.90;;;6.93;;
42200;SDS011;27869;51.442;7.540;2022-12-18T04:42:37;15.20;;;6.25;;
42200;SDS011;27869;51.442;7.540;2022-12-18T04:45:05;18.98;;;6.85;;
42200;SDS011;27869;51.442;7.540;2022-12-18T04:47:33;17.85;;;6.78;;
42200;SDS011;27869;51.442;7.540;2022-12-18T04:50:02;19.25;;;6.18;;
42200;SDS011;27869;51.442;7.540;2022-12-18T04:52:32;19.30;;;6.35;;
42200;SDS011;27869;51.442;7.540;2022-12-18T04:54:59;20.40;;;7.03;;
42200;SDS011;27869;51.442;7.540;2022-12-18T04:57:26;15.60;;;5.70;;
42200;SDS011;27869;51.442;7.540;2022-12-18T04:59:53;17.50;;;6.40;;
42200;SDS011;27869;51.442;7.540;2022-12-18T05:02:19;15.75;;;5.53;;
42200;SDS011;27869;51.442;7.540;2022-12-18T05:04:49;17.10;;;6.88;;
42200;SDS011;27869;51.442;7.540;2022-12-18T05:07:17;14.93;;;5.80;;
42200;SDS011;27869;51.442;7.540;2022-12-18T05:09:44;14.65;;;5.82;;
42200;SDS011;27869;51.442;7.540;2022-12-18T05:12:11;13.50;;;5.40;;
42200;SDS011;27869;51.442;7.540;2022-12-18T05:14:38;15.73;;;5.60;;
42200;SDS011;27869;51.442;7.540;2022-12-18T05:17:05;18.45;;;6.18;;
42200;SDS011;27869;51.442;7.540;2022-12-18T05:19:31;17.48;;;7.35;;
42200;SDS011;27869;51.442;7.540;2022-12-18T05:21:58;16.95;;;5.50;;
42200;SDS011;27869;51.442;7.540;2022-12-18T05:24:27;13.93;;;5.13;;
42200;SDS011;27869;51.442;7.540;2022-12-18T05:26:54;15.45;;;5.70;;
42200;SDS011;27869;51.442;7.540;2022-12-18T05:29:21;14.40;;;5.50;;
42200;SDS011;27869;51.442;7.540;2022-12-18T05:31:50;14.75;;;5.97;;
42200;SDS011;27869;51.442;7.540;2022-12-18T05:34:17;18.55;;;6.43;;
42200;SDS011;27869;51.442;7.540;2022-12-18T05:36:44;16.60;;;5.53;;
42200;SDS011;27869;51.442;7.540;2022-12-18T05:39:11;16.48;;;6.22;;
42200;SDS011;27869;51.442;7.540;2022-12-18T05:41:39;14.23;;;5.20;;
42200;SDS011;27869;51.442;7.540;2022-12-18T05:44:06;15.10;;;5.85;;
42200;SDS011;27869;51.442;7.540;2022-12-18T05:46:33;14.13;;;5.28;;
42200;SDS011;27869;51.442;7.540;2022-12-18T05:49:00;17.13;;;5.45;;
42200;SDS011;27869;51.442;7.540;2022-12-18T05:51:27;16.08;;;6.20;;
42200;SDS011;27869;51.442;7.540;2022-12-18T05:53:54;17.90;;;5.90;;
42200;SDS011;27869;51.442;7.540;2022-12-18T05:56:22;15.15;;;5.25;;
42200;SDS011;27869;51.442;7.540;2022-12-18T05:58:52;15.07;;;5.88;;
42200;SDS011;27869;51.442;7.540;2022-12-18T06:01:20;15.90;;;5.13;;
42200;SDS011;27869;51.442;7.540;2022-12-18T06:03:48;13.90;;;5.47;;
42200;SDS011;27869;51.442;7.540;2022-12-18T06:06:16;14.55;;;5.47;;
42200;SDS011;27869;51.442;7.540;2022-12-18T06:08:44;13.13;;;5.20;;
42200;SDS011;27869;51.442;7.540;2022-12-18T06:11:12;16.08;;;5.82;;
42200;SDS011;27869;51.442;7.540;2022-12-18T06:13:42;18.10;;;6.60;;
42200;SDS011;27869;51.442;7.540;2022-12-18T06:16:10;16.35;;;5.60;;
42200;SDS011;27869;51.442;7.540;2022-12-18T06:18:37;14.07;;;4.93;;
42200;SDS011;27869;51.442;7.540;2022-12-18T06:21:04;13.15;;;4.65;;
42200;SDS011;27869;51.442;7.540;2022-12-18T06:23:31;11.82;;;4.10;;
42200;SDS011;27869;51.442;7.540;2022-12-18T06:25:58;11.38;;;3.10;;
42200;SDS011;27869;51.442;7.540;2022-12-18T06:28:30;10.82;;;3.80;;
42200;SDS011;27869;51.442;7.540;2022-12-18T06:30:59;18.55;;;4.40;;
42200;SDS011;27869;51.442;7.540;2022-12-18T06:33:27;12.00;;;4.10;;
42200;SDS011;27869;51.442;7.540;2022-12-18T06:35:54;14.02;;;4.78;;
42200;SDS011;27869;51.442;7.540;2022-12-18T06:38:26;12.88;;;4.15;;
42200;SDS011;27869;51.442;7.540;2022-12-18T06:40:53;12.23;;;3.85;;
42200;SDS011;27869;51.442;7.540;2022-12-18T06:43:22;13.75;;;4.78;;
42200;SDS011;27869;51.442;7.540;2022-12-18T06:45:49;11.45;;;3.50;;
42200;SDS011;27869;51.442;7.540;2022-12-18T06:48:18;13.75;;;4.03;;
42200;SDS011;27869;51.442;7.540;2022-12-18T06:50:46;11.00;;;3.60;;
42200;SDS011;27869;51.442;7.540;2022-12-18T06:53:13;13.18;;;3.80;;
42200;SDS011;27869;51.442;7.540;2022-12-18T06:55:40;11.43;;;3.88;;
42200;SDS011;27869;51.442;7.540;2022-12-18T06:58:07;9.68;;;3.50;;
42200;SDS011;27869;51.442;7.540;2022-12-18T07:00:34;12.20;;;4.15;;
42200;SDS011;27869;51.442;7.540;2022-12-18T07:03:01;14.68;;;5.60;;
42200;SDS011;27869;51.442;7.540;2022-12-18T07:05:28;15.63;;;5.05;;
42200;SDS011;27869;51.442;7.540;2022-12-18T07:07:57;13.85;;;4.88;;
42200;SDS011;27869;51.442;7.540;2022-12-18T07:10:24;10.73;;;2.90;;
42200;SDS011;27869;51.442;7.540;2022-12-18T07:12:51;14.75;;;4.05;;
42200;SDS011;27869;51.442;7.540;2022-12-18T07:15:18;10.93;;;3.65;;
42200;SDS011;27869;51.442;7.540;2022-12-18T07:17:45;12.27;;;3.55;;
42200;SDS011;27869;51.442;7.540;2022-12-18T07:20:12;11.75;;;3.38;;
42200;SDS011;27869;51.442;7.540;2022-12-18T07:22:38;12.60;;;3.70;;
42200;SDS011;27869;51.442;7.540;2022-12-18T07:25:07;13.18;;;3.95;;
42200;SDS011;27869;51.442;7.540;2022-12-18T07:27:34;12.23;;;3.45;;
42200;SDS011;27869;51.442;7.540;2022-12-18T07:30:03;10.68;;;3.00;;
42200;SDS011;27869;51.442;7.540;2022-12-18T07:32:30;10.48;;;3.22;;
42200;SDS011;27869;51.442;7.540;2022-12-18T07:34:57;9.63;;;2.78;;
42200;SDS011;27869;51.442;7.540;2022-12-18T07:37:24;11.30;;;3.08;;
42200;SDS011;27869;51.442;7.540;2022-12-18T07:39:51;10.75;;;3.00;;
42200;SDS011;27869;51.442;7.540;2022-12-18T07:42:19;9.90;;;2.85;;
42200;SDS011;27869;51.442;7.540;2022-12-18T07:44:58;11.60;;;2.80;;
42200;SDS011;27869;51.442;7.540;2022-12-18T07:47:26;11.05;;;3.13;;
42200;SDS011;27869;51.442;7.540;2022-12-18T07:49:53;9.23;;;2.67;;
42200;SDS011;27869;51.442;7.540;2022-12-18T07:52:20;6.78;;;2.10;;
42200;SDS011;27869;51.442;7.540;2022-12-18T07:54:47;9.55;;;2.47;;
42200;SDS011;27869;51.442;7.540;2022-12-18T07:57:15;7.95;;;2.58;;
42200;SDS011;27869;51.442;7.540;2022-12-18T07:59:43;13.35;;;3.13;;
42200;SDS011;27869;51.442;7.540;2022-12-18T08:02:11;8.98;;;2.65;;
42200;SDS011;27869;51.442;7.540;2022-12-18T08:04:38;7.90;;;2.05;;
42200;SDS011;27869;51.442;7.540;2022-12-18T08:07:04;10.50;;;3.00;;
42200;SDS011;27869;51.442;7.540;2022-12-18T08:09:32;13.85;;;3.67;;
42200;SDS011;27869;51.442;7.540;2022-12-18T08:11:59;9.90;;;2.90;;
42200;SDS011;27869;51.442;7.540;2022-12-18T08:14:25;9.15;;;2.53;;
42200;SDS011;27869;51.442;7.540;2022-12-18T08:16:54;9.90;;;2.47;;
42200;SDS011;27869;51.442;7.540;2022-12-18T08:19:21;10.85;;;2.67;;
42200;SDS011;27869;51.442;7.540;2022-12-18T08:21:48;10.90;;;2.72;;
42200;SDS011;27869;51.442;7.540;2022-12-18T08:24:15;10.52;;;3.17;;
42200;SDS011;27869;51.442;7.540;2022-12-18T08:26:41;11.15;;;2.83;;
42200;SDS011;27869;51.442;7.540;2022-12-18T08:29:09;10.90;;;3.17;;
42200;SDS011;27869;51.442;7.540;2022-12-18T08:31:36;8.75;;;2.65;;
42200;SDS011;27869;51.442;7.540;2022-12-18T08:34:04;11.23;;;2.90;;
42200;SDS011;27869;51.442;7.540;2022-12-18T08:36:31;12.30;;;3.20;;
42200;SDS011;27869;51.442;7.540;2022-12-18T08:38:58;10.32;;;3.15;;
42200;SDS011;27869;51.442;7.540;2022-12-18T08:41:25;14.70;;;3.53;;
42200;SDS011;27869;51.442;7.540;2022-12-18T08:43:52;11.20;;;3.38;;
42200;SDS011;27869;51.442;7.540;2022-12-18T08:46:37;12.20;;;2.95;;
42200;SDS011;27869;51.442;7.540;2022-12-18T08:49:07;8.70;;;2.65;;
42200;SDS011;27869;51.442;7.540;2022-12-18T08:51:35;10.65;;;3.28;;
42200;SDS011;27869;51.442;7.540;2022-12-18T08:54:02;9.65;;;2.75;;
42200;SDS011;27869;51.442;7.540;2022-12-18T08:56:30;9.13;;;2.53;;
42200;SDS011;27869;51.442;7.540;2022-12-18T08:58:58;9.18;;;2.58;;
42200;SDS011;27869;51.442;7.540;2022-12-18T09:01:25;10.40;;;2.90;;
42200;SDS011;27869;51.442;7.540;2022-12-18T09:03:52;13.77;;;3.03;;
42200;SDS011;27869;51.442;7.540;2022-12-18T09:06:21;10.48;;;2.40;;
42200;SDS011;27869;51.442;7.540;2022-12-18T09:08:49;9.50;;;2.70;;
42200;SDS011;27869;51.442;7.540;2022-12-18T09:11:18;8.90;;;2.40;;
42200;SDS011;27869;51.442;7.540;2022-12-18T09:13:48;9.68;;;2.55;;
42200;SDS011;27869;51.442;7.540;2022-12-18T09:16:15;9.23;;;2.65;;
42200;SDS011;27869;51.442;7.540;2022-12-18T09:18:46;10.43;;;2.92;;
42200;SDS011;27869;51.442;7.540;2022-12-18T09:21:13;8.20;;;2.53;;
42200;SDS011;27869;51.442;7.540;2022-12-18T09:23:43;8.57;;;2.63;;
42200;SDS011;27869;51.442;7.540;2022-12-18T09:26:10;10.55;;;2.80;;
42200;SDS011;27869;51.442;7.540;2022-12-18T09:28:37;10.23;;;2.97;;
42200;SDS011;27869;51.442;7.540;2022-12-18T09:31:05;7.45;;;2.00;;
42200;SDS011;27869;51.442;7.540;2022-12-18T09:33:33;9.07;;;2.45;;
42200;SDS011;27869;51.442;7.540;2022-12-18T09:36:01;12.93;;;2.80;;
42200;SDS011;27869;51.442;7.540;2022-12-18T09:38:29;11.10;;;3.47;;
42200;SDS011;27869;51.442;7.540;2022-12-18T09:40:57;9.80;;;2.95;;
42200;SDS011;27869;51.442;7.540;2022-12-18T09:43:30;9.68;;;2.58;;
42200;SDS011;27869;51.442;7.540;2022-12-18T09:46:04;9.85;;;2.75;;
42200;SDS011;27869;51.442;7.540;2022-12-18T09:48:35;8.38;;;2.17;;
42200;SDS011;27869;51.442;7.540;2022-12-18T09:51:09;9.02;;;2.25;;
42200;SDS011;27869;51.442;7.540;2022-12-18T09:53:41;7.65;;;2.75;;
42200;SDS011;27869;51.442;7.540;2022-12-18T09:56:15;8.30;;;2.10;;
42200;SDS011;27869;51.442;7.540;2022-12-18T09:58:45;7.65;;;2.50;;
42200;SDS011;27869;51.442;7.540;2022-12-18T10:01:15;8.85;;;2.28;;
42200;SDS011;27869;51.442;7.540;2022-12-18T10:03:47;8.32;;;1.70;;
42200;SDS011;27869;51.442;7.540;2022-12-18T10:06:15;7.75;;;2.00;;
42200;SDS011;27869;51.442;7.540;2022-12-18T10:08:49;7.90;;;2.45;;
42200;SDS011;27869;51.442;7.540;2022-12-18T10:11:29;10.07;;;2.60;;
42200;SDS011;27869;51.442;7.540;2022-12-18T10:14:06;9.77;;;2.97;;
42200;SDS011;27869;51.442;7.540;2022-12-18T10:16:42;15.32;;;3.42;;
42200;SDS011;27869;51.442;7.540;2022-12-18T10:19:24;10.25;;;2.60;;
42200;SDS011;27869;51.442;7.540;2022-12-18T10:24:32;9.35;;;2.47;;
42200;SDS011;27869;51.442;7.540;2022-12-18T10:27:08;10.63;;;2.95;;
42200;SDS011;27869;51.442;7.540;2022-12-18T10:29:40;9.68;;;2.40;;
42200;SDS011;27869;51.442;7.540;2022-12-18T10:32:09;9.20;;;2.55;;
42200;SDS011;27869;51.442;7.540;2022-12-18T10:34:44;8.27;;;2.22;;
42200;SDS011;27869;51.442;7.540;2022-12-18T10:37:12;9.57;;;2.50;;
42200;SDS011;27869;51.442;7.540;2022-12-18T10:39:43;8.60;;;2.45;;
42200;SDS011;27869;51.442;7.540;2022-12-18T10:42:16;8.38;;;2.20;;
42200;SDS011;27869;51.442;7.540;2022-12-18T10:44:45;6.60;;;2.10;;
42200;SDS011;27869;51.442;7.540;2022-12-18T10:47:27;8.18;;;2.20;;
42200;SDS011;27869;51.442;7.540;2022-12-18T10:49:53;8.85;;;2.10;;
42200;SDS011;27869;51.442;7.540;2022-12-18T10:52:21;8.15;;;2.30;;
42200;SDS011;27869;51.442;7.540;2022-12-18T10:54:52;8.48;;;1.80;;
42200;SDS011;27869;51.442;7.540;2022-12-18T10:57:35;7.45;;;1.98;;
42200;SDS011;27869;51.442;7.540;2022-12-18T11:00:20;7.40;;;1.80;;
42200;SDS011;27869;51.442;7.540;2022-12-18T11:02:49;7.18;;;2.03;;
42200;SDS011;27869;51.442;7.540;2022-12-18T11:05:24;7.28;;;1.85;;
42200;SDS011;27869;51.442;7.540;2022-12-18T11:07:53;10.73;;;2.08;;
42200;SDS011;27869;51.442;7.540;2022-12-18T11:10:22;8.95;;;2.25;;
42200;SDS011;27869;51.442;7.540;2022-12-18T11:12:52;5.85;;;1.58;;
42200;SDS011;27869;51.442;7.540;2022-12-18T11:15:20;8.27;;;2.47;;
42200;SDS011;27869;51.442;7.540;2022-12-18T11:17:56;7.13;;;2.28;;
42200;SDS011;27869;51.442;7.540;2022-12-18T11:20:28;6.97;;;2.17;;
42200;SDS011;27869;51.442;7.540;2022-12-18T11:22:58;3.47;;;1.33;;
42200;SDS011;27869;51.442;7.540;2022-12-18T11:25:28;6.53;;;1.75;;
42200;SDS011;27869;51.442;7.540;2022-12-18T11:27:58;8.52;;;2.15;;
42200;SDS011;27869;51.442;7.540;2022-12-18T11:30:27;6.55;;;1.83;;
42200;SDS011;27869;51.442;7.540;2022-12-18T11:32:56;9.02;;;1.95;;
42200;SDS011;27869;51.442;7.540;2022-12-18T11:35:33;10.13;;;2.45;;
42200;SDS011;27869;51.442;7.540;2022-12-18T11:38:09;8.38;;;1.98;;
42200;SDS011;27869;51.442;7.540;2022-12-18T11:40:44;8.82;;;1.75;;
42200;SDS011;27869;51.442;7.540;2022-12-18T11:43:20;8.25;;;2.20;;
42200;SDS011;27869;51.442;7.540;2022-12-18T11:45:52;6.70;;;2.00;;
42200;SDS011;27869;51.442;7.540;2022-12-18T11:48:23;7.93;;;2.10;;
42200;SDS011;27869;51.442;7.540;2022-12-18T11:50:54;7.95;;;2.13;;
42200;SDS011;27869;51.442;7.540;2022-12-18T11:53:22;8.80;;;2.30;;
42200;SDS011;27869;51.442;7.540;2022-12-18T11:55:54;8.10;;;2.63;;
42200;SDS011;27869;51.442;7.540;2022-12-18T11:58:42;7.25;;;2.08;;
42200;SDS011;27869;51.442;7.540;2022-12-18T12:01:16;8.75;;;2.20;;
42200;SDS011;27869;51.442;7.540;2022-12-18T12:06:49;10.15;;;2.90;;
42200;SDS011;27869;51.442;7.540;2022-12-18T12:09:26;9.30;;;2.30;;
42200;SDS011;27869;51.442;7.540;2022-12-18T12:12:06;8.23;;;2.20;;
42200;SDS011;27869;51.442;7.540;2022-12-18T12:14:49;9.73;;;2.17;;
42200;SDS011;27869;51.442;7.540;2022-12-18T12:17:30;8.07;;;1.90;;
42200;SDS011;27869;51.442;7.540;2022-12-18T12:20:06;6.90;;;1.52;;
42200;SDS011;27869;51.442;7.540;2022-12-18T12:22:41;9.23;;;2.40;;
42200;SDS011;27869;51.442;7.540;2022-12-18T12:25:18;7.95;;;2.10;;
42200;SDS011;27869;51.442;7.540;2022-12-18T12:28:01;7.88;;;1.95;;
42200;SDS011;27869;51.442;7.540;2022-12-18T12:30:42;8.23;;;2.20;;
42200;SDS011;27869;51.442;7.540;2022-12-18T12:33:22;6.80;;;1.98;;
42200;SDS011;27869;51.442;7.540;2022-12-18T12:36:00;10.02;;;2.35;;
42200;SDS011;27869;51.442;7.540;2022-12-18T12:41:03;7.43;;;2.22;;
42200;SDS011;27869;51.442;7.540;2022-12-18T12:43:52;9.27;;;2.50;;
42200;SDS011;27869;51.442;7.540;2022-12-18T12:46:24;14.60;;;4.30;;
42200;SDS011;27869;51.442;7.540;2022-12-18T12:48:52;12.45;;;2.90;;
42200;SDS011;27869;51.442;7.540;2022-12-18T12:51:22;11.45;;;2.78;;
42200;SDS011;27869;51.442;7.540;2022-12-18T12:53:52;10.35;;;2.70;;
42200;SDS011;27869;51.442;7.540;2022-12-18T12:56:21;10.27;;;2.80;;
42200;SDS011;27869;51.442;7.540;2022-12-18T13:01:34;13.27;;;2.53;;
42200;SDS011;27869;51.442;7.540;2022-12-18T13:04:11;14.70;;;3.03;;
42200;SDS011;27869;51.442;7.540;2022-12-18T13:06:46;11.07;;;2.88;;
42200;SDS011;27869;51.442;7.540;2022-12-18T13:09:20;10.20;;;2.80;;
42200;SDS011;27869;51.442;7.540;2022-12-18T13:11:47;12.10;;;3.30;;
42200;SDS011;27869;51.442;7.540;2022-12-18T13:14:33;11.88;;;3.10;;
42200;SDS011;27869;51.442;7.540;2022-12-18T13:17:23;12.70;;;2.72;;
42200;SDS011;27869;51.442;7.540;2022-12-18T13:20:07;10.25;;;2.50;;
42200;SDS011;27869;51.442;7.540;2022-12-18T13:22:36;10.30;;;2.55;;
42200;SDS011;27869;51.442;7.540;2022-12-18T13:27:59;21.58;;;8.73;;
42200;SDS011;27869;51.442;7.540;2022-12-18T13:36:26;9.38;;;2.70;;
42200;SDS011;27869;51.442;7.540;2022-12-18T13:39:21;9.23;;;2.95;;
42200;SDS011;27869;51.442;7.540;2022-12-18T13:41:51;11.48;;;3.03;;
42200;SDS011;27869;51.442;7.540;2022-12-18T13:44:24;10.25;;;3.25;;
42200;SDS011;27869;51.442;7.540;2022-12-18T13:46:57;12.23;;;4.13;;
42200;SDS011;27869;51.442;7.540;2022-12-18T13:49:27;15.20;;;4.07;;
42200;SDS011;27869;51.442;7.540;2022-12-18T13:52:03;15.10;;;3.97;;
42200;SDS011;27869;51.442;7.540;2022-12-18T13:54:42;12.98;;;2.88;;
42200;SDS011;27869;51.442;7.540;2022-12-18T13:57:24;15.07;;;4.03;;
42200;SDS011;27869;51.442;7.540;2022-12-18T13:59:53;11.10;;;3.42;;
42200;SDS011;27869;51.442;7.540;2022-12-18T14:02:21;15.98;;;4.28;;
42200;SDS011;27869;51.442;7.540;2022-12-18T14:04:57;12.88;;;3.38;;
42200;SDS011;27869;51.442;7.540;2022-12-18T14:07:25;12.27;;;3.05;;
42200;SDS011;27869;51.442;7.540;2022-12-18T14:09:54;12.38;;;3.30;;
42200;SDS011;27869;51.442;7.540;2022-12-18T14:12:25;14.95;;;3.92;;
42200;SDS011;27869;51.442;7.540;2022-12-18T14:15:16;13.43;;;4.25;;
42200;SDS011;27869;51.442;7.540;2022-12-18T14:17:50;14.32;;;4.70;;
42200;SDS011;27869;51.442;7.540;2022-12-18T14:20:20;15.13;;;5.25;;
42200;SDS011;27869;51.442;7.540;2022-12-18T14:22:48;14.25;;;4.47;;
42200;SDS011;27869;51.442;7.540;2022-12-18T14:25:17;13.57;;;4.15;;
42200;SDS011;27869;51.442;7.540;2022-12-18T14:27:47;15.38;;;4.43;;
42200;SDS011;27869;51.442;7.540;2022-12-18T14:30:25;13.55;;;4.40;;
42200;SDS011;27869;51.442;7.540;2022-12-18T14:33:03;15.40;;;5.22;;
42200;SDS011;27869;51.442;7.540;2022-12-18T14:35:33;14.20;;;4.82;;
42200;SDS011;27869;51.442;7.540;2022-12-18T14:38:18;15.30;;;5.00;;
42200;SDS011;27869;51.442;7.540;2022-12-18T14:40:52;17.63;;;5.30;;
42200;SDS011;27869;51.442;7.540;2022-12-18T14:43:23;14.70;;;4.45;;
42200;SDS011;27869;51.442;7.540;2022-12-18T14:45:50;15.75;;;4.43;;
42200;SDS011;27869;51.442;7.540;2022-12-18T14:48:18;14.55;;;4.45;;
42200;SDS011;27869;51.442;7.540;2022-12-18T14:50:55;16.70;;;5.28;;
42200;SDS011;27869;51.442;7.540;2022-12-18T14:53:27;17.00;;;4.53;;
42200;SDS011;27869;51.442;7.540;2022-12-18T14:56:04;19.35;;;5.57;;
42200;SDS011;27869;51.442;7.540;2022-12-18T14:58:44;17.13;;;5.93;;
42200;SDS011;27869;51.442;7.540;2022-12-18T15:01:18;15.70;;;5.68;;
42200;SDS011;27869;51.442;7.540;2022-12-18T15:03:47;16.92;;;5.47;;
42200;SDS011;27869;51.442;7.540;2022-12-18T15:06:16;18.98;;;5.20;;
42200;SDS011;27869;51.442;7.540;2022-12-18T15:08:50;18.38;;;5.22;;
42200;SDS011;27869;51.442;7.540;2022-12-18T15:11:25;15.38;;;5.32;;
42200;SDS011;27869;51.442;7.540;2022-12-18T15:13:53;17.52;;;5.35;;
42200;SDS011;27869;51.442;7.540;2022-12-18T15:16:20;15.23;;;4.50;;
42200;SDS011;27869;51.442;7.540;2022-12-18T15:18:47;14.85;;;4.18;;
42200;SDS011;27869;51.442;7.540;2022-12-18T15:21:17;14.02;;;4.25;;